sensor_id;sensor_type;location;lat;lon;timestamp;temperature;humidity
30520;DHT22;17300;50.374;8.006;2023-09-07T00:00:25;20.10;54.00
30520;DHT22;17300;50.374;8.006;2023-09-07T00:02:52;20.10;54.00
30520;DHT22;17300;50.374;8.006;2023-09-07T00:05:19;20.10;54.00
30520;DHT22;17300;50.374;8.006;2023-09-07T00:07:46;20.00;54.10
30520;DHT22;17300;50.374;8.006;2023-09-07T00:10:14;20.00;54.10
30520;DHT22;17300;50.374;8.006;2023-09-07T00:12:43;20.00;54.30
30520;DHT22;17300;50.374;8.006;2023-09-07T00:15:10;20.00;54.30
30520;DHT22;17300;50.374;8.006;2023-09-07T00:17:36;19.90;54.30
30520;DHT22;17300;50.374;8.006;2023-09-07T00:20:04;19.90;54.40
30520;DHT22;17300;50.374;8.006;2023-09-07T00:22:35;19.90;54.60
30520;DHT22;17300;50.374;8.006;2023-09-07T00:25:03;19.80;54.50
30520;DHT22;17300;50.374;8.006;2023-09-07T00:27:33;19.80;54.70
30520;DHT22;17300;50.374;8.006;2023-09-07T00:30:00;19.80;54.80
30520;DHT22;17300;50.374;8.006;2023-09-07T00:32:27;19.80;54.80
30520;DHT22;17300;50.374;8.006;2023-09-07T00:34:53;19.80;54.90
30520;DHT22;17300;50.374;8.006;2023-09-07T00:37:20;19.80;54.90
30520;DHT22;17300;50.374;8.006;2023-09-07T00:39:46;19.80;55.00
30520;DHT22;17300;50.374;8.006;2023-09-07T00:42:13;19.80;55.00
30520;DHT22;17300;50.374;8.006;2023-09-07T00:44:41;19.70;54.90
30520;DHT22;17300;50.374;8.006;2023-09-07T00:47:08;19.70;55.00
30520;DHT22;17300;50.374;8.006;2023-09-07T00:49:34;19.70;54.90
30520;DHT22;17300;50.374;8.006;2023-09-07T00:52:01;19.70;54.90
30520;DHT22;17300;50.374;8.006;2023-09-07T00:54:28;19.70;54.90
30520;DHT22;17300;50.374;8.006;2023-09-07T00:56:56;19.70;54.90
30520;DHT22;17300;50.374;8.006;2023-09-07T00:59:23;19.60;54.80
30520;DHT22;17300;50.374;8.006;2023-09-07T01:01:51;19.60;54.90
30520;DHT22;17300;50.374;8.006;2023-09-07T01:04:17;19.60;55.00
30520;DHT22;17300;50.374;8.006;2023-09-07T01:06:47;19.60;54.90
30520;DHT22;17300;50.374;8.006;2023-09-07T01:09:19;19.50;55.00
30520;DHT22;17300;50.374;8.006;2023-09-07T01:11:46;19.50;55.00
30520;DHT22;17300;50.374;8.006;2023-09-07T01:14:12;19.50;54.90
30520;DHT22;17300;50.374;8.006;2023-09-07T01:16:39;19.50;55.00
30520;DHT22;17300;50.374;8.006;2023-09-07T01:19:08;19.40;55.00
30520;DHT22;17300;50.374;8.006;2023-09-07T01:21:38;19.40;55.10
30520;DHT22;17300;50.374;8.006;2023-09-07T01:24:07;19.40;55.20
30520;DHT22;17300;50.374;8.006;2023-09-07T01:26:34;19.40;55.20
30520;DHT22;17300;50.374;8.006;2023-09-07T01:29:04;19.30;55.10
30520;DHT22;17300;50.374;8.006;2023-09-07T01:31:30;19.30;55.10
30520;DHT22;17300;50.374;8.006;2023-09-07T01:34:00;19.30;55.10
30520;DHT22;17300;50.374;8.006;2023-09-07T01:36:27;19.30;55.10
30520;DHT22;17300;50.374;8.006;2023-09-07T01:38:55;19.20;55.00
30520;DHT22;17300;50.374;8.006;2023-09-07T01:41:22;19.20;55.10
30520;DHT22;17300;50.374;8.006;2023-09-07T01:43:49;19.20;55.10
30520;DHT22;17300;50.374;8.006;2023-09-07T01:46:15;19.20;55.20
30520;DHT22;17300;50.374;8.006;2023-09-07T01:48:42;19.10;55.20
30520;DHT22;17300;50.374;8.006;2023-09-07T01:51:09;19.10;55.40
30520;DHT22;17300;50.374;8.006;2023-09-07T01:53:35;19.10;55.50
30520;DHT22;17300;50.374;8.006;2023-09-07T01:56:03;19.00;55.50
30520;DHT22;17300;50.374;8.006;2023-09-07T01:58:30;19.00;55.40
30520;DHT22;17300;50.374;8.006;2023-09-07T02:00:57;19.00;55.40
30520;DHT22;17300;50.374;8.006;2023-09-07T02:03:24;19.00;55.40
30520;DHT22;17300;50.374;8.006;2023-09-07T02:05:52;18.90;55.40
30520;DHT22;17300;50.374;8.006;2023-09-07T02:08:19;18.90;55.40
30520;DHT22;17300;50.374;8.006;2023-09-07T02:10:46;18.90;55.40
30520;DHT22;17300;50.374;8.006;2023-09-07T02:13:14;18.90;55.40
30520;DHT22;17300;50.374;8.006;2023-09-07T02:15:40;18.90;55.40
30520;DHT22;17300;50.374;8.006;2023-09-07T02:18:07;18.80;55.30
30520;DHT22;17300;50.374;8.006;2023-09-07T02:20:34;18.80;55.30
30520;DHT22;17300;50.374;8.006;2023-09-07T02:23:01;18.80;55.50
30520;DHT22;17300;50.374;8.006;2023-09-07T02:25:28;18.70;55.40
30520;DHT22;17300;50.374;8.006;2023-09-07T02:27:56;18.80;55.50
30520;DHT22;17300;50.374;8.006;2023-09-07T02:30:24;18.70;55.50
30520;DHT22;17300;50.374;8.006;2023-09-07T02:32:50;18.70;55.60
30520;DHT22;17300;50.374;8.006;2023-09-07T02:35:17;18.70;55.60
30520;DHT22;17300;50.374;8.006;2023-09-07T02:37:43;18.70;55.60
30520;DHT22;17300;50.374;8.006;2023-09-07T02:40:11;18.60;55.60
30520;DHT22;17300;50.374;8.006;2023-09-07T02:42:38;18.60;55.60
30520;DHT22;17300;50.374;8.006;2023-09-07T02:45:05;18.60;55.70
30520;DHT22;17300;50.374;8.006;2023-09-07T02:47:33;18.60;55.80
30520;DHT22;17300;50.374;8.006;2023-09-07T02:50:00;18.50;55.80
30520;DHT22;17300;50.374;8.006;2023-09-07T02:52:27;18.50;55.80
30520;DHT22;17300;50.374;8.006;2023-09-07T02:54:53;18.50;55.90
30520;DHT22;17300;50.374;8.006;2023-09-07T02:57:20;18.50;56.00
30520;DHT22;17300;50.374;8.006;2023-09-07T02:59:47;18.50;56.10
30520;DHT22;17300;50.374;8.006;2023-09-07T03:02:13;18.40;56.10
30520;DHT22;17300;50.374;8.006;2023-09-07T03:04:41;18.50;56.30
30520;DHT22;17300;50.374;8.006;2023-09-07T03:07:08;18.40;56.30
30520;DHT22;17300;50.374;8.006;2023-09-07T03:09:35;18.50;56.40
30520;DHT22;17300;50.374;8.006;2023-09-07T03:12:01;18.40;56.40
30520;DHT22;17300;50.374;8.006;2023-09-07T03:14:28;18.40;56.30
30520;DHT22;17300;50.374;8.006;2023-09-07T03:16:55;18.40;56.20
30520;DHT22;17300;50.374;8.006;2023-09-07T03:19:21;18.40;56.20
30520;DHT22;17300;50.374;8.006;2023-09-07T03:21:49;18.40;56.20
30520;DHT22;17300;50.374;8.006;2023-09-07T03:24:16;18.40;56.20
30520;DHT22;17300;50.374;8.006;2023-09-07T03:26:42;18.40;56.10
30520;DHT22;17300;50.374;8.006;2023-09-07T03:29:09;18.40;56.10
30520;DHT22;17300;50.374;8.006;2023-09-07T03:31:36;18.30;56.10
30520;DHT22;17300;50.374;8.006;2023-09-07T03:34:02;18.30;56.20
30520;DHT22;17300;50.374;8.006;2023-09-07T03:36:30;18.30;56.30
30520;DHT22;17300;50.374;8.006;2023-09-07T03:38:58;18.30;56.30
30520;DHT22;17300;50.374;8.006;2023-09-07T03:41:25;18.20;56.30
30520;DHT22;17300;50.374;8.006;2023-09-07T03:43:55;18.20;56.30
30520;DHT22;17300;50.374;8.006;2023-09-07T03:46:22;18.20;56.20
30520;DHT22;17300;50.374;8.006;2023-09-07T03:48:49;18.20;56.20
30520;DHT22;17300;50.374;8.006;2023-09-07T03:51:15;18.20;56.20
30520;DHT22;17300;50.374;8.006;2023-09-07T03:53:42;18.20;56.20
30520;DHT22;17300;50.374;8.006;2023-09-07T03:56:10;18.10;56.20
30520;DHT22;17300;50.374;8.006;2023-09-07T03:58:36;18.10;56.40
30520;DHT22;17300;50.374;8.006;2023-09-07T04:01:03;18.10;56.40
30520;DHT22;17300;50.374;8.006;2023-09-07T04:03:30;18.10;56.50
30520;DHT22;17300;50.374;8.006;2023-09-07T04:05:57;18.10;56.60
30520;DHT22;17300;50.374;8.006;2023-09-07T04:08:24;18.00;56.60
30520;DHT22;17300;50.374;8.006;2023-09-07T04:10:50;18.00;56.60
30520;DHT22;17300;50.374;8.006;2023-09-07T04:13:19;18.00;56.60
30520;DHT22;17300;50.374;8.006;2023-09-07T04:15:45;18.00;56.70
30520;DHT22;17300;50.374;8.006;2023-09-07T04:18:12;18.00;56.60
30520;DHT22;17300;50.374;8.006;2023-09-07T04:20:40;18.00;56.70
30520;DHT22;17300;50.374;8.006;2023-09-07T04:23:07;18.00;56.70
30520;DHT22;17300;50.374;8.006;2023-09-07T04:25:34;18.00;56.70
30520;DHT22;17300;50.374;8.006;2023-09-07T04:28:00;18.00;56.70
30520;DHT22;17300;50.374;8.006;2023-09-07T04:30:28;17.90;56.60
30520;DHT22;17300;50.374;8.006;2023-09-07T04:32:55;17.90;56.70
30520;DHT22;17300;50.374;8.006;2023-09-07T04:35:27;17.90;56.70
30520;DHT22;17300;50.374;8.006;2023-09-07T04:37:54;17.90;56.90
30520;DHT22;17300;50.374;8.006;2023-09-07T04:40:21;17.90;56.80
30520;DHT22;17300;50.374;8.006;2023-09-07T04:42:48;17.90;56.80
30520;DHT22;17300;50.374;8.006;2023-09-07T04:45:15;17.90;56.60
30520;DHT22;17300;50.374;8.006;2023-09-07T04:47:44;17.80;56.50
30520;DHT22;17300;50.374;8.006;2023-09-07T04:50:10;17.80;56.50
30520;DHT22;17300;50.374;8.006;2023-09-07T04:52:38;17.70;56.40
30520;DHT22;17300;50.374;8.006;2023-09-07T04:55:06;17.70;56.50
30520;DHT22;17300;50.374;8.006;2023-09-07T04:57:33;17.70;56.70
30520;DHT22;17300;50.374;8.006;2023-09-07T05:00:00;17.70;56.70
30520;DHT22;17300;50.374;8.006;2023-09-07T05:02:29;17.70;56.80
30520;DHT22;17300;50.374;8.006;2023-09-07T05:04:57;17.60;56.80
30520;DHT22;17300;50.374;8.006;2023-09-07T05:07:23;17.60;56.90
30520;DHT22;17300;50.374;8.006;2023-09-07T05:09:50;17.60;57.60
30520;DHT22;17300;50.374;8.006;2023-09-07T05:12:16;17.60;57.00
30520;DHT22;17300;50.374;8.006;2023-09-07T05:14:45;17.60;57.20
30520;DHT22;17300;50.374;8.006;2023-09-07T05:17:11;17.60;57.20
30520;DHT22;17300;50.374;8.006;2023-09-07T05:19:38;17.60;57.20
30520;DHT22;17300;50.374;8.006;2023-09-07T05:22:06;17.60;57.20
30520;DHT22;17300;50.374;8.006;2023-09-07T05:24:33;17.60;57.30
30520;DHT22;17300;50.374;8.006;2023-09-07T05:27:00;17.60;57.30
30520;DHT22;17300;50.374;8.006;2023-09-07T05:29:28;17.60;57.20
30520;DHT22;17300;50.374;8.006;2023-09-07T05:31:55;17.70;57.30
30520;DHT22;17300;50.374;8.006;2023-09-07T05:34:21;17.70;57.30
30520;DHT22;17300;50.374;8.006;2023-09-07T05:36:48;17.70;57.30
30520;DHT22;17300;50.374;8.006;2023-09-07T05:39:16;17.70;57.30
30520;DHT22;17300;50.374;8.006;2023-09-07T05:41:43;17.70;57.40
30520;DHT22;17300;50.374;8.006;2023-09-07T05:44:09;17.80;57.40
30520;DHT22;17300;50.374;8.006;2023-09-07T05:46:36;17.80;57.40
30520;DHT22;17300;50.374;8.006;2023-09-07T05:49:03;17.90;57.50
30520;DHT22;17300;50.374;8.006;2023-09-07T05:51:29;17.90;57.50
30520;DHT22;17300;50.374;8.006;2023-09-07T05:53:56;17.90;57.50
30520;DHT22;17300;50.374;8.006;2023-09-07T05:56:24;17.90;57.50
30520;DHT22;17300;50.374;8.006;2023-09-07T05:58:51;18.00;57.70
30520;DHT22;17300;50.374;8.006;2023-09-07T06:01:17;18.00;57.60
30520;DHT22;17300;50.374;8.006;2023-09-07T06:03:44;18.00;57.70
30520;DHT22;17300;50.374;8.006;2023-09-07T06:06:11;18.00;57.70
30520;DHT22;17300;50.374;8.006;2023-09-07T06:08:37;18.00;57.70
30520;DHT22;17300;50.374;8.006;2023-09-07T06:11:04;18.10;57.80
30520;DHT22;17300;50.374;8.006;2023-09-07T06:13:32;18.10;57.80
30520;DHT22;17300;50.374;8.006;2023-09-07T06:15:59;18.20;58.10
30520;DHT22;17300;50.374;8.006;2023-09-07T06:18:26;18.40;59.30
30520;DHT22;17300;50.374;8.006;2023-09-07T06:20:53;18.60;61.80
30520;DHT22;17300;50.374;8.006;2023-09-07T06:23:20;19.10;64.80
30520;DHT22;17300;50.374;8.006;2023-09-07T06:25:46;19.70;66.90
30520;DHT22;17300;50.374;8.006;2023-09-07T06:28:13;20.50;68.60
30520;DHT22;17300;50.374;8.006;2023-09-07T06:30:41;21.50;69.50
30520;DHT22;17300;50.374;8.006;2023-09-07T06:33:08;22.50;70.00
30520;DHT22;17300;50.374;8.006;2023-09-07T06:35:34;23.60;68.80
30520;DHT22;17300;50.374;8.006;2023-09-07T06:38:01;24.60;67.90
30520;DHT22;17300;50.374;8.006;2023-09-07T06:40:28;25.70;66.50
30520;DHT22;17300;50.374;8.006;2023-09-07T06:42:56;26.80;64.90
30520;DHT22;17300;50.374;8.006;2023-09-07T06:45:23;27.80;63.00
30520;DHT22;17300;50.374;8.006;2023-09-07T06:47:51;28.80;61.10
30520;DHT22;17300;50.374;8.006;2023-09-07T06:50:19;29.80;59.10
30520;DHT22;17300;50.374;8.006;2023-09-07T06:52:46;30.70;57.70
30520;DHT22;17300;50.374;8.006;2023-09-07T06:55:12;31.60;56.30
30520;DHT22;17300;50.374;8.006;2023-09-07T06:57:39;32.40;54.80
30520;DHT22;17300;50.374;8.006;2023-09-07T07:00:07;33.30;53.50
30520;DHT22;17300;50.374;8.006;2023-09-07T07:02:34;34.00;52.10
30520;DHT22;17300;50.374;8.006;2023-09-07T07:05:03;34.70;50.90
30520;DHT22;17300;50.374;8.006;2023-09-07T07:07:30;35.50;49.30
30520;DHT22;17300;50.374;8.006;2023-09-07T07:09:57;36.10;48.30
30520;DHT22;17300;50.374;8.006;2023-09-07T07:12:23;36.80;47.10
30520;DHT22;17300;50.374;8.006;2023-09-07T07:14:51;37.40;46.00
30520;DHT22;17300;50.374;8.006;2023-09-07T07:17:18;38.00;44.80
30520;DHT22;17300;50.374;8.006;2023-09-07T07:19:44;38.50;43.70
30520;DHT22;17300;50.374;8.006;2023-09-07T07:22:12;39.00;42.50
30520;DHT22;17300;50.374;8.006;2023-09-07T07:24:39;39.60;41.40
30520;DHT22;17300;50.374;8.006;2023-09-07T07:27:06;40.00;40.60
30520;DHT22;17300;50.374;8.006;2023-09-07T07:29:33;40.40;39.80
30520;DHT22;17300;50.374;8.006;2023-09-07T07:31:59;40.90;38.50
30520;DHT22;17300;50.374;8.006;2023-09-07T07:34:26;41.30;37.60
30520;DHT22;17300;50.374;8.006;2023-09-07T07:36:53;41.70;36.80
30520;DHT22;17300;50.374;8.006;2023-09-07T07:39:24;42.10;36.10
30520;DHT22;17300;50.374;8.006;2023-09-07T07:41:50;42.50;34.80
30520;DHT22;17300;50.374;8.006;2023-09-07T07:44:17;42.80;35.40
30520;DHT22;17300;50.374;8.006;2023-09-07T07:46:44;43.20;34.00
30520;DHT22;17300;50.374;8.006;2023-09-07T07:49:11;43.50;33.30
30520;DHT22;17300;50.374;8.006;2023-09-07T07:51:37;43.90;32.70
30520;DHT22;17300;50.374;8.006;2023-09-07T07:54:04;44.20;32.30
30520;DHT22;17300;50.374;8.006;2023-09-07T07:56:32;44.50;31.80
30520;DHT22;17300;50.374;8.006;2023-09-07T07:58:59;44.90;31.10
30520;DHT22;17300;50.374;8.006;2023-09-07T08:01:25;45.20;30.80
30520;DHT22;17300;50.374;8.006;2023-09-07T08:03:52;45.60;30.20
30520;DHT22;17300;50.374;8.006;2023-09-07T08:06:19;46.10;27.60
30520;DHT22;17300;50.374;8.006;2023-09-07T08:08:45;46.20;28.70
30520;DHT22;17300;50.374;8.006;2023-09-07T08:11:12;46.50;28.80
30520;DHT22;17300;50.374;8.006;2023-09-07T08:13:41;46.70;28.40
30520;DHT22;17300;50.374;8.006;2023-09-07T08:16:10;46.90;27.80
30520;DHT22;17300;50.374;8.006;2023-09-07T08:18:37;47.00;27.40
30520;DHT22;17300;50.374;8.006;2023-09-07T08:21:05;47.20;23.80
30520;DHT22;17300;50.374;8.006;2023-09-07T08:23:32;47.20;25.60
30520;DHT22;17300;50.374;8.006;2023-09-07T08:25:58;47.20;26.00
30520;DHT22;17300;50.374;8.006;2023-09-07T08:28:25;47.30;26.10
30520;DHT22;17300;50.374;8.006;2023-09-07T08:30:55;47.50;26.10
30520;DHT22;17300;50.374;8.006;2023-09-07T08:33:24;47.60;25.90
30520;DHT22;17300;50.374;8.006;2023-09-07T08:35:54;47.70;26.30
30520;DHT22;17300;50.374;8.006;2023-09-07T08:38:22;47.80;25.80
30520;DHT22;17300;50.374;8.006;2023-09-07T08:40:54;47.90;25.60
30520;DHT22;17300;50.374;8.006;2023-09-07T08:43:21;48.00;25.50
30520;DHT22;17300;50.374;8.006;2023-09-07T08:45:51;48.10;25.60
30520;DHT22;17300;50.374;8.006;2023-09-07T08:48:20;48.20;25.40
30520;DHT22;17300;50.374;8.006;2023-09-07T08:50:47;48.40;25.50
30520;DHT22;17300;50.374;8.006;2023-09-07T08:53:17;48.60;25.60
30520;DHT22;17300;50.374;8.006;2023-09-07T08:55:44;48.90;25.40
30520;DHT22;17300;50.374;8.006;2023-09-07T08:58:10;49.10;25.10
30520;DHT22;17300;50.374;8.006;2023-09-07T09:00:37;49.40;25.20
30520;DHT22;17300;50.374;8.006;2023-09-07T09:03:08;49.60;25.00
30520;DHT22;17300;50.374;8.006;2023-09-07T09:05:39;49.90;25.00
30520;DHT22;17300;50.374;8.006;2023-09-07T09:08:06;50.10;24.70
30520;DHT22;17300;50.374;8.006;2023-09-07T09:10:33;50.30;24.50
30520;DHT22;17300;50.374;8.006;2023-09-07T09:12:59;50.50;24.90
30520;DHT22;17300;50.374;8.006;2023-09-07T09:15:26;50.80;24.20
30520;DHT22;17300;50.374;8.006;2023-09-07T09:17:53;50.90;24.00
30520;DHT22;17300;50.374;8.006;2023-09-07T09:20:21;51.20;23.90
30520;DHT22;17300;50.374;8.006;2023-09-07T09:22:52;51.30;23.90
30520;DHT22;17300;50.374;8.006;2023-09-07T09:25:18;51.40;23.70
30520;DHT22;17300;50.374;8.006;2023-09-07T09:27:46;51.50;23.90
30520;DHT22;17300;50.374;8.006;2023-09-07T09:30:13;51.70;23.60
30520;DHT22;17300;50.374;8.006;2023-09-07T09:32:41;51.80;23.70
30520;DHT22;17300;50.374;8.006;2023-09-07T09:35:09;51.90;23.70
30520;DHT22;17300;50.374;8.006;2023-09-07T09:37:43;52.10;23.50
30520;DHT22;17300;50.374;8.006;2023-09-07T09:40:12;52.30;23.00
30520;DHT22;17300;50.374;8.006;2023-09-07T09:42:41;52.40;23.10
30520;DHT22;17300;50.374;8.006;2023-09-07T09:45:09;52.60;23.20
30520;DHT22;17300;50.374;8.006;2023-09-07T09:47:38;52.60;23.00
30520;DHT22;17300;50.374;8.006;2023-09-07T09:50:06;52.80;22.60
30520;DHT22;17300;50.374;8.006;2023-09-07T09:52:34;52.80;22.90
30520;DHT22;17300;50.374;8.006;2023-09-07T09:55:02;53.00;22.90
30520;DHT22;17300;50.374;8.006;2023-09-07T09:57:32;53.10;22.40
30520;DHT22;17300;50.374;8.006;2023-09-07T09:59:59;53.20;22.10
30520;DHT22;17300;50.374;8.006;2023-09-07T10:02:33;53.20;21.90
30520;DHT22;17300;50.374;8.006;2023-09-07T10:05:02;53.20;21.90
30520;DHT22;17300;50.374;8.006;2023-09-07T10:07:41;53.20;21.90
30520;DHT22;17300;50.374;8.006;2023-09-07T10:10:09;53.30;21.90
30520;DHT22;17300;50.374;8.006;2023-09-07T10:12:41;53.30;22.10
30520;DHT22;17300;50.374;8.006;2023-09-07T10:15:22;53.40;21.70
30520;DHT22;17300;50.374;8.006;2023-09-07T10:17:49;53.40;21.40
30520;DHT22;17300;50.374;8.006;2023-09-07T10:20:18;53.40;21.50
30520;DHT22;17300;50.374;8.006;2023-09-07T10:22:48;53.40;21.80
30520;DHT22;17300;50.374;8.006;2023-09-07T10:25:19;53.30;21.50
30520;DHT22;17300;50.374;8.006;2023-09-07T10:27:47;53.20;21.20
30520;DHT22;17300;50.374;8.006;2023-09-07T10:30:14;53.10;21.40
30520;DHT22;17300;50.374;8.006;2023-09-07T10:32:45;52.90;21.60
30520;DHT22;17300;50.374;8.006;2023-09-07T10:35:15;52.80;21.60
30520;DHT22;17300;50.374;8.006;2023-09-07T10:37:44;52.80;21.10
30520;DHT22;17300;50.374;8.006;2023-09-07T10:40:12;52.60;21.40
30520;DHT22;17300;50.374;8.006;2023-09-07T10:42:41;52.40;21.60
30520;DHT22;17300;50.374;8.006;2023-09-07T10:45:10;52.20;21.50
30520;DHT22;17300;50.374;8.006;2023-09-07T10:47:40;52.10;21.50
30520;DHT22;17300;50.374;8.006;2023-09-07T10:50:08;51.90;21.60
30520;DHT22;17300;50.374;8.006;2023-09-07T10:52:35;51.70;21.70
30520;DHT22;17300;50.374;8.006;2023-09-07T10:55:02;51.50;22.10
30520;DHT22;17300;50.374;8.006;2023-09-07T10:57:29;51.40;21.90
30520;DHT22;17300;50.374;8.006;2023-09-07T10:59:56;51.10;22.10
30520;DHT22;17300;50.374;8.006;2023-09-07T11:02:24;50.90;21.90
30520;DHT22;17300;50.374;8.006;2023-09-07T11:05:09;50.60;22.20
30520;DHT22;17300;50.374;8.006;2023-09-07T11:07:36;50.30;22.30
30520;DHT22;17300;50.374;8.006;2023-09-07T11:10:06;50.00;22.30
30520;DHT22;17300;50.374;8.006;2023-09-07T11:12:38;49.70;21.80
30520;DHT22;17300;50.374;8.006;2023-09-07T11:15:08;49.40;22.00
30520;DHT22;17300;50.374;8.006;2023-09-07T11:17:38;49.00;21.90
30520;DHT22;17300;50.374;8.006;2023-09-07T11:20:07;48.60;22.20
30520;DHT22;17300;50.374;8.006;2023-09-07T11:22:36;48.20;22.60
30520;DHT22;17300;50.374;8.006;2023-09-07T11:25:04;47.90;22.50
30520;DHT22;17300;50.374;8.006;2023-09-07T11:27:31;47.40;22.20
30520;DHT22;17300;50.374;8.006;2023-09-07T11:29:58;47.00;22.20
30520;DHT22;17300;50.374;8.006;2023-09-07T11:32:33;46.60;22.60
30520;DHT22;17300;50.374;8.006;2023-09-07T11:35:02;46.20;22.90
30520;DHT22;17300;50.374;8.006;2023-09-07T11:37:32;45.80;22.60
30520;DHT22;17300;50.374;8.006;2023-09-07T11:40:00;45.30;22.40
30520;DHT22;17300;50.374;8.006;2023-09-07T11:42:38;44.80;22.60
30520;DHT22;17300;50.374;8.006;2023-09-07T11:45:07;44.40;23.10
30520;DHT22;17300;50.374;8.006;2023-09-07T11:47:34;43.90;23.40
30520;DHT22;17300;50.374;8.006;2023-09-07T11:50:03;43.50;23.60
30520;DHT22;17300;50.374;8.006;2023-09-07T11:52:30;43.10;24.20
30520;DHT22;17300;50.374;8.006;2023-09-07T11:54:57;42.90;24.20
30520;DHT22;17300;50.374;8.006;2023-09-07T11:57:24;42.60;24.60
30520;DHT22;17300;50.374;8.006;2023-09-07T11:59:52;42.30;24.80
30520;DHT22;17300;50.374;8.006;2023-09-07T12:02:19;42.10;24.60
30520;DHT22;17300;50.374;8.006;2023-09-07T12:04:46;41.80;24.50
30520;DHT22;17300;50.374;8.006;2023-09-07T12:07:15;41.60;24.40
30520;DHT22;17300;50.374;8.006;2023-09-07T12:09:41;41.30;25.00
30520;DHT22;17300;50.374;8.006;2023-09-07T12:12:08;41.00;25.40
30520;DHT22;17300;50.374;8.006;2023-09-07T12:14:36;40.70;25.60
30520;DHT22;17300;50.374;8.006;2023-09-07T12:17:03;40.40;25.90
30520;DHT22;17300;50.374;8.006;2023-09-07T12:19:30;40.20;25.40
30520;DHT22;17300;50.374;8.006;2023-09-07T12:21:56;40.00;25.80
30520;DHT22;17300;50.374;8.006;2023-09-07T12:24:24;39.70;25.70
30520;DHT22;17300;50.374;8.006;2023-09-07T12:26:51;39.40;26.20
30520;DHT22;17300;50.374;8.006;2023-09-07T12:29:19;39.20;25.70
30520;DHT22;17300;50.374;8.006;2023-09-07T12:31:46;38.90;26.20
30520;DHT22;17300;50.374;8.006;2023-09-07T12:34:13;38.70;26.30
30520;DHT22;17300;50.374;8.006;2023-09-07T12:36:39;38.40;26.10
30520;DHT22;17300;50.374;8.006;2023-09-07T12:39:06;38.20;26.30
30520;DHT22;17300;50.374;8.006;2023-09-07T12:41:36;38.00;26.70
30520;DHT22;17300;50.374;8.006;2023-09-07T12:44:03;37.80;26.90
30520;DHT22;17300;50.374;8.006;2023-09-07T12:46:30;37.60;27.70
30520;DHT22;17300;50.374;8.006;2023-09-07T12:49:00;37.50;27.50
30520;DHT22;17300;50.374;8.006;2023-09-07T12:51:27;37.30;27.20
30520;DHT22;17300;50.374;8.006;2023-09-07T12:53:54;37.20;27.40
30520;DHT22;17300;50.374;8.006;2023-09-07T12:56:21;37.10;27.90
30520;DHT22;17300;50.374;8.006;2023-09-07T12:58:49;37.00;27.70
30520;DHT22;17300;50.374;8.006;2023-09-07T13:01:18;36.90;27.50
30520;DHT22;17300;50.374;8.006;2023-09-07T13:03:45;36.70;27.40
30520;DHT22;17300;50.374;8.006;2023-09-07T13:06:11;36.60;27.30
30520;DHT22;17300;50.374;8.006;2023-09-07T13:08:39;36.40;28.00
30520;DHT22;17300;50.374;8.006;2023-09-07T13:11:05;36.30;27.50
30520;DHT22;17300;50.374;8.006;2023-09-07T13:13:32;36.10;27.60
30520;DHT22;17300;50.374;8.006;2023-09-07T13:16:00;35.90;27.70
30520;DHT22;17300;50.374;8.006;2023-09-07T13:18:28;35.80;27.90
30520;DHT22;17300;50.374;8.006;2023-09-07T13:20:57;35.70;28.00
30520;DHT22;17300;50.374;8.006;2023-09-07T13:23:26;35.60;28.30
30520;DHT22;17300;50.374;8.006;2023-09-07T13:25:54;35.50;27.90
30520;DHT22;17300;50.374;8.006;2023-09-07T13:28:20;35.40;28.20
30520;DHT22;17300;50.374;8.006;2023-09-07T13:30:47;35.40;28.90
30520;DHT22;17300;50.374;8.006;2023-09-07T13:33:15;35.30;28.60
30520;DHT22;17300;50.374;8.006;2023-09-07T13:35:42;35.20;28.90
30520;DHT22;17300;50.374;8.006;2023-09-07T13:38:09;35.20;28.50
30520;DHT22;17300;50.374;8.006;2023-09-07T13:40:36;35.20;28.40
30520;DHT22;17300;50.374;8.006;2023-09-07T13:43:03;35.10;28.70
30520;DHT22;17300;50.374;8.006;2023-09-07T13:45:29;35.00;28.50
30520;DHT22;17300;50.374;8.006;2023-09-07T13:47:56;35.00;28.40
30520;DHT22;17300;50.374;8.006;2023-09-07T13:50:24;34.90;28.10
30520;DHT22;17300;50.374;8.006;2023-09-07T13:52:51;34.80;27.90
30520;DHT22;17300;50.374;8.006;2023-09-07T13:55:17;34.80;28.20
30520;DHT22;17300;50.374;8.006;2023-09-07T13:57:44;34.70;28.30
30520;DHT22;17300;50.374;8.006;2023-09-07T14:00:11;34.60;28.10
30520;DHT22;17300;50.374;8.006;2023-09-07T14:02:38;34.60;28.50
30520;DHT22;17300;50.374;8.006;2023-09-07T14:05:06;34.50;28.40
30520;DHT22;17300;50.374;8.006;2023-09-07T14:07:34;34.40;28.50
30520;DHT22;17300;50.374;8.006;2023-09-07T14:10:01;34.40;28.80
30520;DHT22;17300;50.374;8.006;2023-09-07T14:12:28;34.30;28.70
30520;DHT22;17300;50.374;8.006;2023-09-07T14:14:54;34.30;28.60
30520;DHT22;17300;50.374;8.006;2023-09-07T14:17:21;34.30;29.10
30520;DHT22;17300;50.374;8.006;2023-09-07T14:19:48;34.20;29.60
30520;DHT22;17300;50.374;8.006;2023-09-07T14:22:14;34.20;29.60
30520;DHT22;17300;50.374;8.006;2023-09-07T14:24:42;34.20;29.20
30520;DHT22;17300;50.374;8.006;2023-09-07T14:27:09;34.10;29.10
30520;DHT22;17300;50.374;8.006;2023-09-07T14:29:35;34.10;29.10
30520;DHT22;17300;50.374;8.006;2023-09-07T14:32:02;34.10;29.40
30520;DHT22;17300;50.374;8.006;2023-09-07T14:34:29;34.10;29.50
30520;DHT22;17300;50.374;8.006;2023-09-07T14:36:56;34.10;29.10
30520;DHT22;17300;50.374;8.006;2023-09-07T14:39:23;34.00;29.40
30520;DHT22;17300;50.374;8.006;2023-09-07T14:41:51;34.00;29.60
30520;DHT22;17300;50.374;8.006;2023-09-07T14:44:19;33.90;29.70
30520;DHT22;17300;50.374;8.006;2023-09-07T14:46:45;33.90;29.30
30520;DHT22;17300;50.374;8.006;2023-09-07T14:49:14;33.80;29.10
30520;DHT22;17300;50.374;8.006;2023-09-07T14:51:43;33.80;29.10
30520;DHT22;17300;50.374;8.006;2023-09-07T14:54:10;33.70;29.10
30520;DHT22;17300;50.374;8.006;2023-09-07T14:56:38;33.60;28.90
30520;DHT22;17300;50.374;8.006;2023-09-07T14:59:07;33.60;29.30
30520;DHT22;17300;50.374;8.006;2023-09-07T15:01:33;33.50;29.10
30520;DHT22;17300;50.374;8.006;2023-09-07T15:04:01;33.50;29.00
30520;DHT22;17300;50.374;8.006;2023-09-07T15:06:28;33.40;29.00
30520;DHT22;17300;50.374;8.006;2023-09-07T15:08:56;33.30;28.80
30520;DHT22;17300;50.374;8.006;2023-09-07T15:11:23;33.30;29.20
30520;DHT22;17300;50.374;8.006;2023-09-07T15:13:50;33.30;28.80
30520;DHT22;17300;50.374;8.006;2023-09-07T15:16:20;33.20;28.70
30520;DHT22;17300;50.374;8.006;2023-09-07T15:18:46;33.20;29.00
30520;DHT22;17300;50.374;8.006;2023-09-07T15:21:13;33.10;28.90
30520;DHT22;17300;50.374;8.006;2023-09-07T15:23:40;33.10;29.00
30520;DHT22;17300;50.374;8.006;2023-09-07T15:26:08;33.00;29.10
30520;DHT22;17300;50.374;8.006;2023-09-07T15:28:37;32.90;29.10
30520;DHT22;17300;50.374;8.006;2023-09-07T15:31:05;32.90;29.40